Stations météo

réclame
Mon MeteoGroup
Rodkallen, Suède (2188): Température de l'air & dewpoint: 16.10.2020 06:00:00 - 22.10.2020 06:00:00 (CEST)Rodkallen, Suède (2188): Vitesse du vent & gusts: 16.10.2020 06:00:00 - 22.10.2020 06:00:00 (CEST)Rodkallen, Suède (2188): Direction du vent: 16.10.2020 06:00:00 - 22.10.2020 06:00:00 (CEST)Rodkallen, Suède (2188): visibility: 16.10.2020 06:00:00 - 22.10.2020 06:00:00 (CEST)Rodkallen, Suède (2188): Quantités de précipitations: 16.10.2020 06:00:00 - 22.10.2020 06:00:00 (CEST)
Date & Time tt [°C] td [°C] ff [km/h] ff [knt] fx [km/h] fx [knt] dd vv [km] rr [mm]
22.10.2020 06:00:00 - - - - - - - - -
22.10.2020 05:00:00 4,7 2,7 16 8 19 11 ENE 21 0,4
22.10.2020 04:00:00 4,8 3,1 16 8 22 12 E 17 0,1
22.10.2020 03:00:00 4,8 3,0 16 9 25 14 E 39 0,4
22.10.2020 02:00:00 4,6 2,8 22 12 28 15 E 33 0,6
22.10.2020 01:00:00 4,3 2,5 24 13 32 17 E 31 0,8
22.10.2020 00:00:00 4,0 2,5 26 14 36 20 E 12 0,8
21.10.2020 23:00:00 3,7 2,3 31 17 41 22 E 10 0,6
21.10.2020 22:00:00 3,4 2,2 31 17 43 23 E 6 0,6
21.10.2020 21:00:00 2,9 1,7 36 20 49 26 E 6 0,9
21.10.2020 20:00:00 2,6 1,4 40 21 54 29 E 4,0 0,9
21.10.2020 19:00:00 2,7 1,7 43 23 55 30 E 6 1,1
21.10.2020 18:00:00 2,7 1,7 41 22 54 29 E 4,5 1,3
21.10.2020 17:00:00 2,2 1,2 41 22 52 28 E 3,6 1,4
21.10.2020 16:00:00 2,3 1,3 40 22 52 28 E 4,6 1,0
21.10.2020 15:00:00 2,1 0,6 38 21 46 25 E 5 0,4
21.10.2020 14:00:00 2,3 0,0 33 18 42 23 E 12 0,0
21.10.2020 13:00:00 2,3 -0,3 31 17 42 23 E 18 0,0
21.10.2020 12:00:00 2,2 -1,1 30 16 40 22 E 50 0,0
21.10.2020 11:00:00 2,2 -0,3 27 15 36 19 E 50 0,0
21.10.2020 10:00:00 2,2 -1,4 30 16 38 21 E 50 0,2
21.10.2020 09:00:00 2,6 -0,8 24 13 37 20 E 50 0,0
21.10.2020 08:00:00 2,2 0,4 26 14 38 21 E 10 0,1
21.10.2020 07:00:00 2,7 0,6 24 13 38 21 E 50 0,6
21.10.2020 06:00:00 2,0 0,7 26 14 44 24 E 9 0,5
21.10.2020 05:00:00 2,6 0,4 22 12 37 20 NE 50 0,0
21.10.2020 04:00:00 2,5 -0,1 19 10 26 14 ENE 50 0,0
21.10.2020 03:00:00 2,0 -0,7 16 9 23 12 E 50 0,2
21.10.2020 02:00:00 0,9 0,0 17 9 27 15 NNE 5 0,1
21.10.2020 01:00:00 -0,1 -1,2 21 12 27 15 N 15 0,0
21.10.2020 00:00:00 0,0 -0,7 14 8 18 10 N 2,4 0,1
20.10.2020 23:00:00 0,1 -1,3 11 6 16 9 N 7 0,1
20.10.2020 22:00:00 0,4 -1,4 9 5 18 10 N 50 0,0
20.10.2020 21:00:00 0,6 -1,6 6 3 16 9 N 50 0,0
20.10.2020 20:00:00 0,7 -1,7 8 4 14 7 N 50 0,0
20.10.2020 19:00:00 0,4 -2,0 6 3 14 8 NNW 50 0,0
20.10.2020 18:00:00 0,3 -1,8 6 3 15 8 NNW 50 0,0
20.10.2020 17:00:00 -0,4 -2,5 9 5 18 10 N 50 0,0
20.10.2020 16:00:00 0,1 -2,4 10 5 16 9 NNW 50 0,0
20.10.2020 15:00:00 -0,1 -2,6 12 6 18 10 N 50 0,0
20.10.2020 14:00:00 0,2 -2,7 13 7 21 11 NW 50 0,0
20.10.2020 13:00:00 0,1 -2,8 13 7 21 11 NW 50 0,0
20.10.2020 12:00:00 -0,6 -3,1 14 8 25 14 NNW 50 0,0
20.10.2020 11:00:00 -0,8 -3,3 18 10 31 17 NNW 50 0,0
20.10.2020 10:00:00 -1,1 -3,5 22 12 33 18 NNW 50 0,0
20.10.2020 09:00:00 -1,4 -3,9 23 12 33 18 NNW 50 0,0
20.10.2020 08:00:00 -1,3 -3,7 21 11 30 16 NNW 50 0,0
20.10.2020 07:00:00 -1,1 -3,6 21 12 36 19 NNW 50 0,0
20.10.2020 06:00:00 -1,1 -3,6 22 12 35 19 NNW 50 0,0
20.10.2020 05:00:00 -1,0 -3,4 23 12 35 19 NNW 50 0,0
20.10.2020 04:00:00 -0,6 -2,8 24 13 40 22 NNW 50 0,0
20.10.2020 03:00:00 -0,5 -2,9 22 12 37 20 NNW 50 0,0
20.10.2020 02:00:00 -0,4 -2,9 25 14 37 20 NNW 50 0,0
20.10.2020 01:00:00 0,0 -2,2 26 14 40 21 NNW 50 0,0
20.10.2020 00:00:00 0,5 -1,9 26 14 41 22 N 50 0,0
19.10.2020 23:00:00 0,6 -1,6 29 16 45 24 NNW 50 0,0
19.10.2020 22:00:00 1,0 -1,2 29 16 40 22 NNW 50 0,0
19.10.2020 21:00:00 1,2 -1,0 32 17 45 24 NNW 50 0,0
19.10.2020 20:00:00 1,7 -0,9 34 18 49 26 N 50 0,0
19.10.2020 19:00:00 1,9 -1,4 36 20 49 27 N 50 0,0
19.10.2020 18:00:00 2,0 -1,4 37 20 53 28 N 50 0,0
19.10.2020 17:00:00 2,0 -1,1 37 20 56 30 N 50 0,0
19.10.2020 16:00:00 2,5 -1,7 46 25 57 31 N 50 0,0
19.10.2020 15:00:00 2,4 -1,6 41 22 54 29 N 50 0,0
19.10.2020 14:00:00 2,4 -1,0 42 23 54 29 N 50 0,0
19.10.2020 13:00:00 2,3 -1,0 44 24 55 30 N 50 0,0
19.10.2020 12:00:00 2,3 -0,6 43 23 58 31 N 50 0,0
19.10.2020 11:00:00 2,3 -0,1 44 24 59 32 N 50 0,0
19.10.2020 10:00:00 2,4 0,6 48 26 63 34 N 32 0,1
19.10.2020 09:00:00 2,3 0,8 46 25 57 31 N 22 0,4
19.10.2020 08:00:00 2,2 0,7 47 25 60 33 N 18 0,4
19.10.2020 07:00:00 2,4 1,1 50 27 62 33 N 17 0,7
19.10.2020 06:00:00 2,4 1,2 48 26 64 34 N 16 0,6
19.10.2020 05:00:00 2,5 1,2 50 27 65 35 N 21 0,6
19.10.2020 04:00:00 2,3 1,3 50 27 65 35 N 7 1,8
19.10.2020 03:00:00 2,0 1,0 49 26 63 34 N 10 0,9
19.10.2020 02:00:00 1,8 0,9 50 27 65 35 N 9 1,0
19.10.2020 01:00:00 1,7 0,8 48 26 64 35 N 7 1,1
19.10.2020 00:00:00 1,5 0,8 52 28 70 38 N 5 1,1
18.10.2020 23:00:00 1,4 0,8 51 28 73 39 N 4,7 1,1
18.10.2020 22:00:00 1,2 0,9 55 30 72 39 N 4,7 1,2
18.10.2020 21:00:00 - - - - - - - - -
18.10.2020 20:00:00 - - - - - - - - -
18.10.2020 19:00:00 0,1 -0,2 49 26 61 33 N 1,2 1,1
18.10.2020 18:00:00 0,0 -0,3 45 24 67 36 N 0,7 1,8
18.10.2020 17:00:00 0,0 -0,2 47 25 63 34 N 0,5 2,8
18.10.2020 16:00:00 0,0 -0,3 51 27 68 37 N 0,6 1,3
18.10.2020 15:00:00 0,4 0,0 48 26 65 35 N 1,1 1,4
18.10.2020 14:00:00 0,3 -0,1 49 26 64 35 N 1,2 1,2
18.10.2020 13:00:00 0,6 0,2 44 24 70 38 N 1,9 0,9
18.10.2020 12:00:00 1,3 0,7 53 29 67 36 N 13 0,3
18.10.2020 11:00:00 1,0 0,4 53 29 74 40 N 3,6 1,4
18.10.2020 10:00:00 1,1 0,5 56 30 76 41 N 2,0 1,8
18.10.2020 09:00:00 1,6 0,9 57 31 72 39 N 6 2,5
18.10.2020 08:00:00 0,8 0,2 37 20 55 30 N 2,0 2,2
18.10.2020 07:00:00 0,8 -0,2 42 23 60 32 N 4,4 0,6
18.10.2020 06:00:00 1,0 0,3 40 21 58 31 N 1,8 0,3
18.10.2020 05:00:00 1,6 0,6 34 18 49 27 NNW 9 0,1
18.10.2020 04:00:00 2,2 1,3 32 18 48 26 NNW 21 0,2
18.10.2020 03:00:00 2,6 1,4 31 17 44 24 NNW 5 -
18.10.2020 02:00:00 2,9 1,7 23 12 33 18 NNW 24 0,0
18.10.2020 01:00:00 3,0 2,1 20 11 30 16 NW 24 0,0
18.10.2020 00:00:00 3,5 1,4 18 10 30 16 NW 50 0,0
17.10.2020 23:00:00 3,9 0,8 20 11 36 20 NW 50 0,0
17.10.2020 22:00:00 5,2 0,4 20 11 32 17 NW 50 0,0
17.10.2020 21:00:00 6,0 0,9 26 14 37 20 WNW 50 0,0
17.10.2020 20:00:00 6,6 1,5 16 8 22 12 W 50 0,0
17.10.2020 19:00:00 6,3 0,8 17 9 36 19 NW 50 0,0
17.10.2020 18:00:00 7,2 1,7 27 15 46 25 W 50 0,0
17.10.2020 17:00:00 7,6 1,6 37 20 42 23 W 50 0,0
17.10.2020 16:00:00 8,4 3,4 24 13 32 17 WSW 50 0,0
17.10.2020 15:00:00 8,6 3,0 29 15 35 19 W 50 0,0
17.10.2020 14:00:00 8,7 4,1 24 13 28 15 SW 50 0,0
17.10.2020 13:00:00 8,4 4,2 19 11 30 16 SW 50 0,0
17.10.2020 12:00:00 8,3 3,9 22 12 31 17 WSW 50 0,0
17.10.2020 11:00:00 8,0 4,0 28 15 38 21 WSW 41 0,0
17.10.2020 10:00:00 7,8 4,4 27 14 34 19 WSW 50 0,0
17.10.2020 09:00:00 7,7 4,3 27 15 40 21 WSW 50 0,0
17.10.2020 08:00:00 7,6 4,2 34 19 45 24 WSW 50 0,0
17.10.2020 07:00:00 7,8 4,0 36 19 42 23 WSW 50 0,0
17.10.2020 06:00:00 8,0 4,4 28 15 44 24 WSW 13 0,0
17.10.2020 05:00:00 7,9 4,1 37 20 45 25 WSW 50 0,0
17.10.2020 04:00:00 7,4 3,6 27 15 36 20 WSW 50 0,0
17.10.2020 03:00:00 7,4 3,8 29 16 34 18 WSW 50 0,0
17.10.2020 02:00:00 7,2 4,2 25 14 37 20 WSW 50 0,0
17.10.2020 01:00:00 7,4 3,8 33 18 40 22 WSW 50 0,0
17.10.2020 00:00:00 7,4 4,0 32 18 39 21 WSW 50 0,0
16.10.2020 23:00:00 7,4 3,7 31 17 37 20 WSW 50 0,0
16.10.2020 22:00:00 7,4 3,8 30 16 35 19 WSW 50 0,0
16.10.2020 21:00:00 7,7 3,5 26 14 32 17 WSW 50 0,0
16.10.2020 20:00:00 7,6 3,8 27 14 31 17 WSW 50 0,0
16.10.2020 19:00:00 7,8 4,0 22 12 27 14 SW 50 0,0
16.10.2020 18:00:00 7,7 3,2 19 10 26 14 W 50 0,0
16.10.2020 17:00:00 7,4 3,3 19 11 25 14 W 50 0,0
16.10.2020 16:00:00 7,0 3,2 19 10 28 15 W 50 0,0
16.10.2020 15:00:00 6,7 3,1 19 11 23 12 WSW 50 0,0
16.10.2020 14:00:00 6,3 2,9 19 10 23 12 W 50 0,0
16.10.2020 13:00:00 6,0 1,9 16 9 21 12 W 50 0,0
16.10.2020 12:00:00 6,0 2,1 14 8 16 9 W 50 0,0
16.10.2020 11:00:00 5,6 2,2 14 7 19 11 W 50 0,0
16.10.2020 10:00:00 5,5 1,4 11 6 19 10 NW 50 0,0
16.10.2020 09:00:00 5,1 1,9 14 8 20 11 NW 50 0,0
16.10.2020 08:00:00 4,6 1,6 14 8 25 13 WNW 50 0,0
16.10.2020 07:00:00 4,1 1,1 17 9 27 15 WNW 50 0,0
16.10.2020 06:00:00 3,5 0,7 18 10 29 16 NW 50 0,0

tt = Température de l'air
td = dewpoint
ff = Vitesse du vent
fx = gusts
dd = Direction du vent
vv = visibility
rr = Quantités de précipitations

stations d'obs. à proximité